Time;durP1;ratioP1;P1;durP2;ratioP2;P2;SDS_P1;SDS_P2;PMS_P1;PMS_P2;Temp;Humidity;BMP_temperature;BMP_pressure;BME280_temperature;BME280_humidity;BME280_pressure;Samples;Min_cycle;Max_cycle;Signal;HPM_P1;HPM_P2
2023/05/20 00:01:51;;;;;;;1.83;1.30;;;;;;;-144.73;59.23;54233.25;5056020;28;20041;-71
2023/05/20 00:04:17;;;;;;;3.72;1.08;;;;;;;-144.73;59.38;54220.94;5059498;28;20017;-71
2023/05/20 00:06:42;;;;;;;2.70;1.10;;;;;;;-144.73;59.55;54282.50;5060916;28;20029;-71
2023/05/20 00:09:07;;;;;;;6.07;1.40;;;;;;;-144.73;58.73;54251.72;5062582;28;20017;-71
2023/05/20 00:11:33;;;;;;;2.72;1.05;;;;;;;-144.73;58.80;54276.34;5063845;28;20029;-71
2023/05/20 00:13:58;;;;;;;3.22;1.40;;;;;;;-144.73;59.21;54227.09;5050597;28;20021;-71
2023/05/20 00:16:23;;;;;;;5.30;1.77;;;;;;;-144.73;58.48;54243.50;5058969;28;20379;-69
2023/05/20 00:18:49;;;;;;;6.55;1.27;;;;;;;-144.73;58.89;54259.91;5050501;28;20037;-69
2023/05/20 00:21:14;;;;;;;2.20;1.20;;;;;;;-144.73;58.28;54243.50;5065706;28;20046;-69
2023/05/20 00:23:40;;;;;;;5.00;1.30;;;;;;;-144.73;58.77;54251.72;5060809;28;20029;-70
2023/05/20 00:26:05;;;;;;;2.92;1.17;;;;;;;-144.73;59.11;54259.91;5060698;28;20025;-69
2023/05/20 00:28:30;;;;;;;6.53;1.50;;;;;;;-144.73;59.47;54251.72;5059627;28;20078;-70
2023/05/20 00:30:56;;;;;;;2.78;1.27;;;;;;;-144.73;59.43;54276.34;5052812;28;20090;-69
2023/05/20 00:33:21;;;;;;;3.45;1.00;;;;;;;-144.73;58.80;54257.88;5064454;28;20049;-70
2023/05/20 00:35:46;;;;;;;1.85;1.20;;;;;;;-144.73;59.47;54259.91;5057704;28;20027;-70
2023/05/20 00:38:12;;;;;;;1.77;1.00;;;;;;;-144.73;59.25;54276.34;5062387;28;20037;-69
2023/05/20 00:40:37;;;;;;;4.00;1.55;;;;;;;-144.73;59.37;54247.59;5059817;28;20017;-69
2023/05/20 00:43:02;;;;;;;4.93;1.42;;;;;;;-144.73;59.63;54239.41;5054301;28;20073;-70
2023/05/20 00:45:27;;;;;;;1.77;1.20;;;;;;;-144.73;59.85;54231.19;5049771;28;20025;-69
2023/05/20 00:47:56;;;;;;;5.95;2.08;;;;;;;-144.73;59.89;54247.59;5054993;28;20437;-70
2023/05/20 00:50:21;;;;;;;3.47;1.33;;;;;;;-144.73;59.83;54233.25;5061234;28;20013;-69
2023/05/20 00:52:50;;;;;;;2.75;1.08;;;;;;;-144.73;59.79;54296.88;5057356;28;20029;-69
2023/05/20 00:55:16;;;;;;;4.15;1.17;;;;;;;-144.73;60.23;54276.34;5053409;28;20170;-69
2023/05/20 00:57:41;;;;;;;6.28;1.70;;;;;;;-144.73;60.78;54284.56;5049292;28;20104;-69
2023/05/20 01:00:09;;;;;;;1.88;0.93;;;;;;;-144.73;60.67;54284.56;5059240;28;20357;-69
2023/05/20 01:02:35;;;;;;;5.72;1.77;;;;;;;-144.73;61.11;54253.75;5054321;28;20132;-70
2023/05/20 01:05:00;;;;;;;7.45;1.35;;;;;;;-144.73;61.24;54235.28;5057691;28;20157;-69
2023/05/20 01:07:26;;;;;;;2.40;1.23;;;;;;;-144.73;60.71;54245.56;5055376;28;20032;-70
2023/05/20 01:09:53;;;;;;;6.43;2.03;;;;;;;-144.73;61.06;54280.44;5057210;28;20025;-69
2023/05/20 01:12:28;;;;;;;2.92;1.10;;;;;;;-144.73;61.96;54227.09;5057836;28;20110;-70
2023/05/20 01:15:00;;;;;;;1.90;1.15;;;;;;;-144.73;62.25;54227.09;5049694;28;20024;-70
2023/05/20 01:17:29;;;;;;;3.15;1.13;;;;;;;-144.73;62.03;54305.06;5045453;28;20040;-69
2023/05/20 01:19:58;;;;;;;4.30;1.20;;;;;;;-144.73;63.27;54227.09;5054006;28;20028;-69
2023/05/20 01:22:25;;;;;;;3.63;1.30;;;;;;;-144.73;62.98;54251.72;5047462;28;20571;-70
2023/05/20 01:24:54;;;;;;;7.18;1.20;;;;;;;-144.73;63.36;54280.44;5048009;28;20029;-70
2023/05/20 01:27:21;;;;;;;2.90;1.30;;;;;;;-144.73;62.77;54280.44;5047323;28;20037;-69
2023/05/20 01:29:51;;;;;;;1.70;1.05;;;;;;;-144.73;63.46;54251.72;5047637;28;20021;-70
2023/05/20 01:32:21;;;;;;;4.25;1.02;;;;;;;-144.73;64.49;54280.44;5052870;28;20025;-70
2023/05/20 01:34:49;;;;;;;2.42;1.33;;;;;;;-144.73;64.57;54247.59;5052883;28;20024;-70
2023/05/20 01:37:16;;;;;;;5.03;1.30;;;;;;;-144.73;63.76;54237.34;5062982;28;20032;-70
2023/05/20 01:39:42;;;;;;;8.23;1.60;;;;;;;-144.73;64.94;54264.03;5054822;28;20041;-69
2023/05/20 01:42:08;;;;;;;3.35;1.33;;;;;;;-144.73;64.72;54227.09;5066516;28;20047;-69
2023/05/20 01:44:34;;;;;;;7.68;1.55;;;;;;;-144.73;65.10;54251.72;5063515;28;20021;-70
2023/05/20 01:47:00;;;;;;;3.15;1.48;;;;;;;-144.73;65.58;54292.75;5056639;28;20078;-70
2023/05/20 01:49:25;;;;;;;2.88;1.38;;;;;;;-144.73;65.27;54284.56;5051995;28;20107;-70
2023/05/20 01:51:51;;;;;;;5.82;1.33;;;;;;;-144.73;66.07;54253.75;5064652;28;20097;-70
2023/05/20 01:54:16;;;;;;;6.00;1.77;;;;;;;-144.73;67.66;54241.44;5081300;28;20063;-70
2023/05/20 01:56:42;;;;;;;3.20;1.35;;;;;;;-144.73;68.80;54222.97;5082510;28;20048;-70
2023/05/20 01:59:07;;;;;;;4.30;1.30;;;;;;;-144.73;69.23;54227.09;5086859;28;20028;-70
2023/05/20 02:01:32;;;;;;;4.63;1.65;;;;;;;-144.73;70.73;54247.59;5079600;28;20395;-70
2023/05/20 02:03:57;;;;;;;6.45;1.30;;;;;;;-144.73;72.97;54251.72;5076515;28;20027;-70
2023/05/20 02:06:23;;;;;;;3.88;1.42;;;;;;;-144.73;72.91;54245.56;5076385;28;20028;-69
2023/05/20 02:08:48;;;;;;;3.05;1.63;;;;;;;-144.73;75.51;54259.91;5083560;28;20040;-70
2023/05/20 02:11:14;;;;;;;7.13;1.40;;;;;;;-144.73;77.30;54222.97;5078473;28;20406;-70
2023/05/20 02:13:39;;;;;;;6.18;1.90;;;;;;;-144.73;79.43;54255.81;5070671;28;20039;-69
2023/05/20 02:16:05;;;;;;;4.50;1.48;;;;;;;-144.73;79.70;54231.19;5085543;28;20043;-70
2023/05/20 02:18:31;;;;;;;7.10;1.70;;;;;;;-144.73;79.42;54231.19;5074582;28;20036;-69
2023/05/20 02:21:04;;;;;;;6.10;1.45;;;;;;;-144.73;82.28;54255.81;5074866;28;20037;-69
2023/05/20 02:23:30;;;;;;;3.08;1.50;;;;;;;-144.73;83.80;54235.28;5071110;28;20033;-69
2023/05/20 02:25:55;;;;;;;5.47;1.60;;;;;;;-144.73;86.42;54231.19;5079219;28;20032;-69
2023/05/20 02:28:21;;;;;;;7.63;1.63;;;;;;;-144.73;88.55;54227.09;5086759;28;20547;-69
2023/05/20 02:30:46;;;;;;;5.20;1.83;;;;;;;-144.73;89.31;54276.34;5081133;28;20048;-69
2023/05/20 02:33:12;;;;;;;8.18;1.90;;;;;;;-144.73;91.45;54229.13;5084381;28;20028;-70
2023/05/20 02:35:38;;;;;;;8.70;1.85;;;;;;;-144.73;92.11;54218.88;5074256;28;20569;-70
2023/05/20 02:38:04;;;;;;;2.75;1.50;;;;;;;-144.73;94.45;54266.06;5075028;28;20115;-69
2023/05/20 02:40:29;;;;;;;6.18;1.50;;;;;;;-144.73;96.17;54227.09;5075165;28;20127;-70
2023/05/20 02:42:55;;;;;;;5.97;1.80;;;;;;;-144.73;95.51;54288.66;5068809;28;20055;-70
2023/05/20 02:45:20;;;;;;;3.92;1.50;;;;;;;-144.73;97.46;54264.03;5070626;28;20437;-70
2023/05/20 02:47:45;;;;;;;6.45;1.70;;;;;;;-144.73;97.14;54243.50;5069543;28;20037;-69
2023/05/20 02:50:11;;;;;;;4.57;1.50;;;;;;;-144.73;98.26;54282.50;5072130;28;20028;-71
2023/05/20 02:52:36;;;;;;;5.78;1.70;;;;;;;-144.73;98.66;54276.34;5073874;28;20044;-71
2023/05/20 02:55:01;;;;;;;4.38;2.20;;;;;;;-144.73;98.71;54268.13;5083618;28;20036;-71
2023/05/20 02:57:27;;;;;;;3.67;1.60;;;;;;;-144.73;100.00;54259.91;5072033;28;20391;-71
2023/05/20 02:59:53;;;;;;;3.08;1.70;;;;;;;-144.73;99.65;54235.28;5077286;28;20039;-71
2023/05/20 03:02:19;;;;;;;4.60;1.73;;;;;;;-144.73;100.00;54251.72;5068784;28;20032;-70
2023/05/20 03:04:46;;;;;;;5.80;1.75;;;;;;;-144.73;100.00;54264.03;5069281;28;20031;-71
2023/05/20 03:07:11;;;;;;;3.13;1.50;;;;;;;-144.73;100.00;54268.13;5069033;28;20063;-70
2023/05/20 03:09:36;;;;;;;5.25;1.50;;;;;;;-144.73;100.00;54222.97;5068988;28;20044;-71
2023/05/20 03:12:02;;;;;;;19.52;2.45;;;;;;;-144.73;100.00;54280.44;5066892;28;20115;-71
2023/05/20 03:14:27;;;;;;;11.35;1.60;;;;;;;-144.73;100.00;54284.56;5069880;28;20122;-71
2023/05/20 03:16:56;;;;;;;6.20;1.70;;;;;;;-144.73;100.00;54210.66;5066150;28;20041;-70
2023/05/20 03:19:22;;;;;;;8.38;1.98;;;;;;;-144.73;100.00;54264.03;5067743;28;20027;-71
2023/05/20 03:21:47;;;;;;;7.47;1.80;;;;;;;-144.73;100.00;54276.34;5075504;28;20032;-71
2023/05/20 03:24:13;;;;;;;4.30;1.35;;;;;;;-144.73;100.00;54251.72;5070243;28;20062;-71
2023/05/20 03:26:41;;;;;;;5.05;1.70;;;;;;;-144.73;100.00;54342.03;5082398;28;20036;-71
2023/05/20 03:29:08;;;;;;;3.60;1.80;;;;;;;-144.73;100.00;54329.72;5083673;28;20074;-71
2023/05/20 03:31:34;;;;;;;8.50;1.50;;;;;;;-144.73;100.00;54239.41;5080253;28;20028;-71
2023/05/20 03:33:59;;;;;;;11.48;2.17;;;;;;;-144.73;100.00;54261.97;5073062;28;20028;-71
2023/05/20 03:36:25;;;;;;;3.35;1.52;;;;;;;-144.73;100.00;54280.44;5070563;28;20056;-71
2023/05/20 03:38:50;;;;;;;9.32;1.83;;;;;;;-144.73;100.00;54251.72;5073887;28;20031;-70
2023/05/20 03:41:16;;;;;;;5.40;1.58;;;;;;;-144.73;100.00;54313.28;5076428;28;20032;-71
2023/05/20 03:43:41;;;;;;;5.38;1.70;;;;;;;-144.73;100.00;54245.56;5081913;28;20020;-70
2023/05/20 03:46:06;;;;;;;6.63;1.63;;;;;;;-144.73;100.00;54276.34;5082140;28;20036;-70
2023/05/20 03:48:32;;;;;;;8.02;2.13;;;;;;;-144.73;100.00;54243.50;5083259;28;20116;-70
2023/05/20 03:50:57;;;;;;;2.95;1.33;;;;;;;-144.73;100.00;54251.72;5085792;28;20031;-70
2023/05/20 03:53:22;;;;;;;4.72;1.73;;;;;;;-144.73;100.00;54239.41;5076950;28;20103;-70
2023/05/20 03:55:48;;;;;;;5.40;1.77;;;;;;;-144.73;100.00;54292.75;5076224;28;20020;-70
2023/05/20 03:58:14;;;;;;;9.52;2.55;;;;;;;-144.73;100.00;54280.44;5076219;28;20113;-70
2023/05/20 04:00:40;;;;;;;3.00;1.60;;;;;;;-144.73;100.00;54259.91;5083849;28;20458;-70
2023/05/20 04:03:06;;;;;;;6.82;1.63;;;;;;;-144.73;100.00;54296.88;5076411;28;20039;-71
2023/05/20 04:05:31;;;;;;;6.28;1.38;;;;;;;-144.73;100.00;54298.91;5074775;28;20020;-70
2023/05/20 04:07:56;;;;;;;8.88;1.92;;;;;;;-144.73;100.00;54239.41;5068909;28;20044;-70
2023/05/20 04:10:22;;;;;;;4.50;1.40;;;;;;;-144.73;100.00;54313.28;5073833;28;20085;-70
2023/05/20 04:12:48;;;;;;;7.88;1.75;;;;;;;-144.73;100.00;54231.19;5073875;28;20032;-70
2023/05/20 04:15:13;;;;;;;4.95;1.73;;;;;;;-144.73;100.00;54292.75;5078471;28;21268;-70
2023/05/20 04:17:39;;;;;;;3.67;1.83;;;;;;;-144.73;100.00;54276.34;5076480;28;20032;-70
2023/05/20 04:20:06;;;;;;;3.53;1.55;;;;;;;-144.73;100.00;54276.34;5075981;28;20101;-70
2023/05/20 04:22:33;;;;;;;8.27;2.03;;;;;;;-144.73;100.00;54280.44;5078932;28;20032;-71
2023/05/20 04:24:58;;;;;;;12.10;1.50;;;;;;;-144.73;100.00;54276.34;5074269;28;20426;-70
2023/05/20 04:27:24;;;;;;;7.78;1.73;;;;;;;-144.73;100.00;54290.72;5074532;28;20045;-70
2023/05/20 04:29:51;;;;;;;6.53;2.25;;;;;;;-144.73;100.00;54247.59;5078677;28;20020;-70
2023/05/20 04:32:18;;;;;;;10.82;1.63;;;;;;;-144.73;100.00;54264.03;5079670;28;20055;-70
2023/05/20 04:34:44;;;;;;;5.18;1.77;;;;;;;-144.73;100.00;54300.97;5078304;28;20073;-70
2023/05/20 04:37:10;;;;;;;8.48;2.10;;;;;;;-144.73;100.00;54235.28;5069792;28;20092;-70
2023/05/20 04:39:35;;;;;;;6.97;2.10;;;;;;;-144.73;100.00;54288.66;5081229;28;20114;-70
2023/05/20 04:42:02;;;;;;;10.80;2.05;;;;;;;-144.73;100.00;54251.72;5071916;28;20033;-70
2023/05/20 04:44:28;;;;;;;8.30;2.50;;;;;;;-144.73;100.00;54268.13;5072905;28;20028;-70
2023/05/20 04:46:55;;;;;;;5.28;1.80;;;;;;;-144.73;100.00;54276.34;5080705;28;20043;-70
2023/05/20 04:49:20;;;;;;;8.65;2.15;;;;;;;-144.73;100.00;54259.91;5072170;28;20013;-70
2023/05/20 04:51:48;;;;;;;7.82;2.30;;;;;;;-144.73;100.00;54288.66;5076967;28;20029;-70
2023/05/20 04:54:16;;;;;;;5.00;2.13;;;;;;;-144.73;100.00;54300.97;5072619;28;20484;-70
2023/05/20 04:56:42;;;;;;;12.32;1.92;;;;;;;-144.73;100.00;54280.44;5075940;28;20047;-70
2023/05/20 04:59:09;;;;;;;11.02;2.80;;;;;;;-144.73;100.00;54266.06;5082848;28;20028;-70
2023/05/20 05:01:35;;;;;;;11.48;2.55;;;;;;;-144.73;100.00;54284.56;5077166;28;20370;-70
2023/05/20 05:04:01;;;;;;;4.30;1.70;;;;;;;-144.73;100.00;54276.34;5080357;28;20080;-70
2023/05/20 05:06:27;;;;;;;7.30;1.83;;;;;;;-144.73;100.00;54276.34;5068840;28;20036;-70
2023/05/20 05:08:52;;;;;;;10.77;2.25;;;;;;;-144.73;100.00;54276.34;5076016;28;20099;-70
2023/05/20 05:11:17;;;;;;;7.88;3.00;;;;;;;-144.73;100.00;54300.97;5080680;28;20024;-70
2023/05/20 05:13:43;;;;;;;6.60;1.77;;;;;;;-144.73;100.00;54259.91;5076351;28;20027;-70
2023/05/20 05:16:08;;;;;;;10.30;1.88;;;;;;;-144.73;100.00;54288.66;5082168;28;20032;-70
2023/05/20 05:18:33;;;;;;;6.07;1.73;;;;;;;-144.73;100.00;54296.88;5070467;28;20040;-70
2023/05/20 05:21:04;;;;;;;4.13;1.42;;;;;;;-144.73;100.00;54311.22;5079418;28;20116;-70
2023/05/20 05:23:30;;;;;;;11.65;1.83;;;;;;;-144.73;100.00;54247.59;5070544;28;20024;-70
2023/05/20 05:25:56;;;;;;;6.45;1.70;;;;;;;-144.73;100.00;54284.56;5074028;28;20032;-71
2023/05/20 05:28:21;;;;;;;7.32;1.75;;;;;;;-144.73;100.00;54255.81;5078320;28;20048;-70
2023/05/20 05:30:46;;;;;;;9.13;2.13;;;;;;;-144.73;100.00;54251.72;5082898;28;20497;-70
2023/05/20 05:33:13;;;;;;;10.95;2.17;;;;;;;-144.73;100.00;54309.19;5076446;28;20373;-70
2023/05/20 05:35:40;;;;;;;8.20;2.30;;;;;;;-144.73;100.00;54239.41;5074051;28;20024;-70
2023/05/20 05:38:06;;;;;;;10.48;1.90;;;;;;;-144.73;100.00;54264.03;5079804;28;20040;-70
2023/05/20 05:40:31;;;;;;;18.75;3.13;;;;;;;-144.73;100.00;54288.66;5073647;28;20032;-70
2023/05/20 05:42:56;;;;;;;6.35;1.98;;;;;;;-144.73;100.00;54280.44;5071157;28;20040;-70
2023/05/20 05:45:22;;;;;;;14.10;3.25;;;;;;;-144.73;100.00;54264.03;5085591;28;20102;-70
2023/05/20 05:47:47;;;;;;;6.03;1.83;;;;;;;-144.73;100.00;54276.34;5078216;28;20036;-70
2023/05/20 05:50:12;;;;;;;12.02;2.10;;;;;;;-144.73;100.00;54313.28;5079436;28;20028;-70
2023/05/20 05:52:38;;;;;;;9.65;2.22;;;;;;;-144.73;100.00;54276.34;5079672;28;20453;-70
2023/05/20 05:55:03;;;;;;;7.70;1.90;;;;;;;-144.73;100.00;54284.56;5077901;28;20058;-70
2023/05/20 05:57:29;;;;;;;19.63;2.80;;;;;;;-144.73;100.00;54251.72;5082235;28;20042;-70
2023/05/20 05:59:54;;;;;;;7.70;1.60;;;;;;;-144.73;100.00;54255.81;5074059;28;20028;-70
2023/05/20 06:02:21;;;;;;;7.85;2.10;;;;;;;-144.73;100.00;54284.56;5083346;28;20036;-70
2023/05/20 06:04:46;;;;;;;10.68;2.17;;;;;;;-144.73;100.00;54296.88;5071783;28;20134;-70
2023/05/20 06:07:11;;;;;;;10.10;2.10;;;;;;;-144.73;100.00;54288.66;5075281;28;20523;-71
2023/05/20 06:09:37;;;;;;;9.88;2.05;;;;;;;-144.73;100.00;54321.50;5084804;28;20023;-70
2023/05/20 06:12:03;;;;;;;6.70;2.15;;;;;;;-144.73;100.00;54296.88;5076404;28;20040;-70
2023/05/20 06:14:28;;;;;;;6.50;1.92;;;;;;;-144.73;100.00;54292.75;5076563;28;20103;-70
2023/05/20 06:16:54;;;;;;;7.15;1.90;;;;;;;-144.73;100.00;54288.66;5082444;28;20092;-70
2023/05/20 06:19:19;;;;;;;8.88;2.30;;;;;;;-144.73;100.00;54305.06;5077055;28;20028;-70
2023/05/20 06:21:44;;;;;;;6.35;1.92;;;;;;;-144.73;100.00;54296.88;5079289;28;20066;-70
2023/05/20 06:24:10;;;;;;;6.75;1.85;;;;;;;-144.73;100.00;54276.34;5069588;28;20116;-70
2023/05/20 06:26:35;;;;;;;7.05;1.80;;;;;;;-144.73;100.00;54280.44;5080321;28;20132;-71
2023/05/20 06:29:02;;;;;;;6.13;1.90;;;;;;;-144.73;100.00;54311.22;5084343;28;20158;-71
2023/05/20 06:31:28;;;;;;;10.52;2.50;;;;;;;-144.73;100.00;54280.44;5082051;28;20028;-72
2023/05/20 06:33:54;;;;;;;9.20;2.05;;;;;;;-144.73;100.00;54280.44;5073054;28;20020;-71
2023/05/20 06:36:20;;;;;;;8.15;1.98;;;;;;;-144.73;100.00;54294.81;5072144;28;20064;-69
2023/05/20 06:38:46;;;;;;;9.88;1.85;;;;;;;-144.73;100.00;54231.19;5077007;28;20380;-70
2023/05/20 06:41:11;;;;;;;11.48;1.92;;;;;;;-144.73;100.00;54255.81;5076032;28;20021;-70
2023/05/20 06:43:36;;;;;;;4.90;1.95;;;;;;;-144.73;100.00;54268.13;5074374;28;20040;-69
2023/05/20 06:46:02;;;;;;;13.48;2.28;;;;;;;-144.73;100.00;54229.13;5080973;28;20031;-70
2023/05/20 06:48:27;;;;;;;10.73;2.60;;;;;;;-144.73;100.00;54342.03;5070593;28;20032;-70
2023/05/20 06:50:52;;;;;;;4.57;1.63;;;;;;;-144.73;100.00;54286.59;5079256;28;20033;-70
2023/05/20 06:53:18;;;;;;;5.40;2.17;;;;;;;-144.73;100.00;54239.41;5071340;28;20040;-70
2023/05/20 06:55:43;;;;;;;10.98;1.98;;;;;;;-144.73;100.00;54313.28;5080704;28;20020;-70
2023/05/20 06:58:08;;;;;;;6.88;2.20;;;;;;;-144.73;98.60;54255.81;5082096;28;20040;-70
2023/05/20 07:00:34;;;;;;;9.20;2.00;;;;;;;-144.73;97.85;54251.72;5079052;28;20051;-70
2023/05/20 07:03:00;;;;;;;10.48;2.05;;;;;;;-144.73;97.36;54239.41;5082934;28;20050;-69
2023/05/20 07:05:27;;;;;;;7.55;2.60;;;;;;;-144.73;97.22;54315.34;5078626;28;20040;-70
2023/05/20 07:07:53;;;;;;;6.47;2.95;;;;;;;-144.73;97.14;54307.13;5074264;28;20028;-70
2023/05/20 07:10:18;;;;;;;11.85;2.03;;;;;;;-144.73;97.50;54284.56;5074818;28;20044;-70
2023/05/20 07:12:44;;;;;;;9.45;2.42;;;;;;;-144.73;97.17;54251.72;5068567;28;20054;-70
2023/05/20 07:15:09;;;;;;;8.85;2.55;;;;;;;-144.73;95.64;54292.75;5068900;28;20020;-70
2023/05/20 07:17:35;;;;;;;5.65;2.33;;;;;;;-144.73;96.15;54294.81;5069913;28;20031;-70
2023/05/20 07:20:00;;;;;;;13.48;2.10;;;;;;;-144.73;95.95;54296.88;5071490;28;20395;-70
2023/05/20 07:22:26;;;;;;;8.55;2.22;;;;;;;-144.73;94.69;54278.41;5078117;28;20033;-69
2023/05/20 07:24:51;;;;;;;11.02;2.67;;;;;;;-144.73;92.84;54284.56;5076331;28;20052;-69
2023/05/20 07:27:17;;;;;;;7.82;2.58;;;;;;;-144.73;91.67;54255.81;5080407;28;20119;-72
2023/05/20 07:29:42;;;;;;;11.88;2.47;;;;;;;-144.73;91.48;54231.19;5083089;28;20379;-72
2023/05/20 07:32:08;;;;;;;6.07;2.10;;;;;;;-144.73;89.31;54268.13;5078309;28;20043;-69
2023/05/20 07:34:34;;;;;;;6.97;2.70;;;;;;;-144.73;89.49;54222.97;5083683;28;20023;-70
2023/05/20 07:37:00;;;;;;;5.30;2.13;;;;;;;-144.73;89.63;54227.09;5076581;28;20163;-70
2023/05/20 07:39:25;;;;;;;10.63;2.38;;;;;;;-144.73;88.86;54255.81;5076648;28;20394;-70
2023/05/20 07:41:51;;;;;;;7.28;2.20;;;;;;;-144.73;88.10;54251.72;5077108;28;20060;-70
2023/05/20 07:44:17;;;;;;;7.35;2.15;;;;;;;-144.73;87.49;54247.59;5074524;28;20035;-70
2023/05/20 07:46:43;;;;;;;7.07;2.20;;;;;;;-144.73;85.30;54231.19;5069207;28;20545;-70
2023/05/20 07:49:09;;;;;;;5.68;2.63;;;;;;;-144.73;85.11;54216.81;5075672;28;20017;-70
2023/05/20 07:51:35;;;;;;;5.20;2.35;;;;;;;-144.73;81.32;54194.25;5079872;28;20073;-70
2023/05/20 07:54:01;;;;;;;14.00;1.92;;;;;;;-144.73;79.57;54218.88;5081996;28;20367;-71
2023/05/20 07:56:27;;;;;;;7.72;2.30;;;;;;;-144.73;79.10;54210.66;5075761;28;20182;-70
2023/05/20 07:58:55;;;;;;;8.35;2.10;;;;;;;-144.73;78.45;54210.66;5085384;28;20017;-71
2023/05/20 08:01:21;;;;;;;6.78;1.80;;;;;;;-144.73;76.58;54229.13;5081478;28;20071;-70
2023/05/20 08:03:46;;;;;;;7.03;2.22;;;;;;;-144.73;77.33;54200.41;5078476;28;20097;-70
2023/05/20 08:06:12;;;;;;;3.58;1.98;;;;;;;-144.73;76.42;54247.59;5072630;28;20028;-71
2023/05/20 08:08:39;;;;;;;6.22;2.00;;;;;;;-144.73;76.54;54206.56;5072436;28;20036;-70
2023/05/20 08:11:05;;;;;;;10.32;1.98;;;;;;;-144.73;73.93;54245.56;5073811;28;20025;-70
2023/05/20 08:13:30;;;;;;;7.65;3.05;;;;;;;-144.73;75.10;54231.19;5072703;28;20040;-70
2023/05/20 08:15:55;;;;;;;7.30;2.60;;;;;;;-144.73;72.79;54206.56;5071565;28;20097;-70
2023/05/20 08:18:22;;;;;;;7.57;2.42;;;;;;;-144.73;73.18;54206.56;5077927;28;20054;-70
2023/05/20 08:20:47;;;;;;;4.07;2.28;;;;;;;-144.73;72.37;54194.25;5074877;28;20016;-70
2023/05/20 08:23:13;;;;;;;13.48;2.45;;;;;;;-144.73;69.88;54231.19;5077626;28;20116;-70
2023/05/20 08:25:38;;;;;;;9.00;2.20;;;;;;;-144.73;69.48;54210.66;5075405;28;20020;-71
2023/05/20 08:28:05;;;;;;;6.28;2.25;;;;;;;-144.73;68.10;54227.09;5069579;28;20029;-70
2023/05/20 08:30:31;;;;;;;4.97;2.10;;;;;;;-144.73;67.47;54194.25;5069192;28;20041;-70
2023/05/20 08:32:57;;;;;;;8.45;2.08;;;;;;;-144.73;64.95;54202.44;5067808;28;20037;-71
2023/05/20 08:35:23;;;;;;;7.82;2.45;;;;;;;-144.73;65.00;54247.59;5069490;28;20032;-71
2023/05/20 08:37:48;;;;;;;5.90;2.20;;;;;;;-144.73;66.33;54206.56;5068143;28;20028;-70
2023/05/20 08:40:14;;;;;;;5.47;2.20;;;;;;;-144.73;62.85;54214.78;5069335;28;20567;-70
2023/05/20 08:42:43;;;;;;;4.47;2.05;;;;;;;-144.73;62.22;54243.50;5074777;28;20024;-70
2023/05/20 08:45:16;;;;;;;12.48;1.88;;;;;;;-144.73;62.81;54210.66;5077991;28;20056;-70
2023/05/20 08:47:42;;;;;;;18.05;2.63;;;;;;;-144.73;63.05;54194.25;5071925;28;20040;-71
2023/05/20 08:50:11;;;;;;;4.07;2.38;;;;;;;-144.73;61.82;54202.44;5071694;28;20034;-71
2023/05/20 08:52:42;;;;;;;7.38;2.45;;;;;;;-144.73;61.65;54202.44;5083915;28;20036;-71
2023/05/20 08:55:10;;;;;;;6.90;1.98;;;;;;;-144.73;62.32;54227.09;5083934;28;20064;-72
2023/05/20 08:57:37;;;;;;;4.00;1.77;;;;;;;-144.73;62.57;54202.44;5072610;28;20063;-72
2023/05/20 09:00:08;;;;;;;8.40;2.10;;;;;;;-144.73;63.88;54173.72;5073662;28;20028;-72
2023/05/20 09:02:37;;;;;;;11.95;2.30;;;;;;;-144.73;62.61;54247.59;5074409;28;20052;-71
2023/05/20 09:05:03;;;;;;;5.05;2.05;;;;;;;-144.73;64.00;54231.19;5064489;28;20059;-72
2023/05/20 09:07:29;;;;;;;17.80;2.17;;;;;;;-144.73;62.62;54173.72;5074624;28;20037;-71
2023/05/20 09:09:54;;;;;;;5.90;1.83;;;;;;;-144.73;60.45;54218.88;5067486;28;20021;-72
2023/05/20 09:12:20;;;;;;;4.38;1.67;;;;;;;-144.73;60.08;54163.47;5066427;28;20059;-72
2023/05/20 09:14:46;;;;;;;6.32;1.67;;;;;;;-144.73;58.71;54214.78;5064749;28;20104;-72
2023/05/20 09:17:12;;;;;;;3.38;1.92;;;;;;;-144.73;60.28;54231.19;5072777;28;20051;-72
2023/05/20 09:19:38;;;;;;;7.18;2.08;;;;;;;-144.73;60.61;54177.81;5074414;28;20035;-71
2023/05/20 09:22:04;;;;;;;7.75;1.55;;;;;;;-144.73;59.76;54231.19;5073182;28;20483;-70
2023/05/20 09:24:30;;;;;;;4.50;1.40;;;;;;;-144.73;60.23;54251.72;5074162;28;20024;-71
2023/05/20 09:26:56;;;;;;;4.50;1.75;;;;;;;-144.73;60.62;54342.03;5070607;28;20116;-71
2023/05/20 09:29:25;;;;;;;15.48;2.10;;;;;;;-144.73;60.60;54247.59;5073828;28;20056;-71
2023/05/20 09:31:52;;;;;;;4.97;1.90;;;;;;;-144.73;62.20;54214.78;5066568;28;20064;-71
2023/05/20 09:34:19;;;;;;;2.33;1.73;;;;;;;-144.73;61.72;54218.88;5071293;28;20055;-71
2023/05/20 09:36:49;;;;;;;4.90;1.60;;;;;;;-144.73;62.00;54220.94;5071655;28;20039;-71
2023/05/20 09:39:18;;;;;;;7.53;1.90;;;;;;;-144.73;61.11;54231.19;5070746;28;20039;-71
2023/05/20 09:42:09;;;;;;;1.33;1.20;;;;;;;-144.73;59.76;54239.41;5070888;28;20029;-71
2023/05/20 09:44:35;;;;;;;3.45;1.80;;;;;;;-144.73;60.03;54231.19;5071830;28;20095;-72
2023/05/20 09:47:01;;;;;;;4.35;1.90;;;;;;;-144.73;59.31;54276.34;5075347;28;20115;-71
2023/05/20 09:49:28;;;;;;;5.95;2.10;;;;;;;-144.73;60.12;54214.78;5074077;28;20429;-70
2023/05/20 09:51:56;;;;;;;11.55;2.20;;;;;;;-144.73;60.56;54235.28;5068716;28;20032;-71
2023/05/20 09:54:23;;;;;;;5.93;1.90;;;;;;;-144.73;60.47;54251.72;5066157;28;20016;-71
2023/05/20 09:56:49;;;;;;;4.20;1.80;;;;;;;-144.73;60.30;54237.34;5061897;28;20040;-71
2023/05/20 09:59:16;;;;;;;4.68;1.90;;;;;;;-144.73;60.49;54235.28;5074261;28;20024;-71
2023/05/20 10:01:41;;;;;;;8.40;1.80;;;;;;;-144.73;60.08;54255.81;5059711;28;20021;-70
2023/05/20 10:04:08;;;;;;;7.95;1.83;;;;;;;-144.73;61.54;54227.09;5060359;28;20085;-70
2023/05/20 10:07:00;;;;;;;4.80;2.03;;;;;;;-144.73;61.05;54259.91;5059917;28;20097;-70
2023/05/20 10:09:49;;;;;;;4.35;1.75;;;;;;;-144.73;61.47;54231.19;5070795;28;20054;-70
2023/05/20 10:12:34;;;;;;;4.13;1.83;;;;;;;-144.73;61.04;54251.72;5056760;28;20078;-70
2023/05/20 10:15:06;;;;;;;5.35;1.85;;;;;;;-144.73;61.92;54233.25;5061248;28;20067;-70
2023/05/20 10:17:38;;;;;;;9.88;2.22;;;;;;;-144.73;62.32;54227.09;5063201;28;20102;-70
2023/05/20 10:20:08;;;;;;;9.70;2.00;;;;;;;-144.73;61.44;54227.09;5065838;28;20453;-70
2023/05/20 10:22:33;;;;;;;7.40;2.28;;;;;;;-144.73;61.43;54251.72;5058924;28;20035;-70
2023/05/20 10:25:07;;;;;;;3.75;1.75;;;;;;;-144.73;61.78;54210.66;5059076;28;20091;-70
2023/05/20 10:27:46;;;;;;;4.40;2.03;;;;;;;-144.73;60.73;54239.41;5063057;28;20079;-70
2023/05/20 10:30:19;;;;;;;3.15;1.92;;;;;;;-144.73;61.18;54247.59;5067177;28;20524;-70
2023/05/20 10:32:55;;;;;;;4.15;1.70;;;;;;;-144.73;61.77;54247.59;5073608;28;20519;-71
2023/05/20 10:35:25;;;;;;;5.00;1.90;;;;;;;-144.73;61.93;54227.09;5073950;28;20028;-70
2023/05/20 10:37:52;;;;;;;6.35;2.30;;;;;;;-144.73;62.10;54253.75;5072599;28;20043;-70
2023/05/20 10:40:19;;;;;;;8.52;2.13;;;;;;;-144.73;62.65;54206.56;5077351;28;20077;-70
2023/05/20 10:42:45;;;;;;;3.45;1.95;;;;;;;-144.73;62.28;54243.50;5068521;28;20036;-70
2023/05/20 10:45:11;;;;;;;12.25;3.10;;;;;;;-144.73;62.80;54243.50;5066628;28;20020;-70
2023/05/20 10:47:52;;;;;;;5.47;1.88;;;;;;;-144.73;62.73;54227.09;5070505;28;20458;-70
2023/05/20 10:50:34;;;;;;;13.38;2.40;;;;;;;-144.73;62.12;54239.41;5069517;28;20017;-70
2023/05/20 10:53:10;;;;;;;4.20;2.30;;;;;;;-144.73;61.73;54251.72;5078359;28;20049;-70
2023/05/20 10:55:40;;;;;;;3.28;2.10;;;;;;;-144.73;61.04;54255.81;5069113;28;20047;-70
2023/05/20 10:58:06;;;;;;;10.05;2.20;;;;;;;-144.73;61.81;54276.34;5074752;28;20064;-70
2023/05/20 11:00:36;;;;;;;3.70;2.05;;;;;;;-144.73;61.25;54247.59;5072157;28;20049;-70
2023/05/20 11:03:03;;;;;;;5.97;2.15;;;;;;;-144.73;61.03;54210.66;5074888;28;20032;-70
2023/05/20 11:05:29;;;;;;;6.32;2.05;;;;;;;-144.73;60.84;54251.72;5071054;28;20107;-70
2023/05/20 11:08:02;;;;;;;7.90;2.30;;;;;;;-144.73;61.47;54222.97;5066096;28;20032;-70
2023/05/20 11:10:28;;;;;;;5.32;1.83;;;;;;;-144.73;61.43;54214.78;5069599;28;20020;-70